sensor_id;sensor_type;location;lat;lon;timestamp;pressure;altitude;pressure_sealevel;temperature
19282;BMP180;9774;52.034;5.342;2023-04-01T00:01:02;98859.00;;;16.40
19282;BMP180;9774;52.034;5.342;2023-04-01T00:03:31;98860.00;;;16.40
19282;BMP180;9774;52.034;5.342;2023-04-01T00:05:59;98859.00;;;16.40
19282;BMP180;9774;52.034;5.342;2023-04-01T00:08:29;98856.00;;;16.40
19282;BMP180;9774;52.034;5.342;2023-04-01T00:10:57;98868.00;;;16.40
19282;BMP180;9774;52.034;5.342;2023-04-01T00:13:25;98862.00;;;16.40
19282;BMP180;9774;52.034;5.342;2023-04-01T00:15:53;98866.00;;;16.40
19282;BMP180;9774;52.034;5.342;2023-04-01T00:18:21;98871.00;;;16.40
19282;BMP180;9774;52.034;5.342;2023-04-01T00:20:50;98868.00;;;16.40
19282;BMP180;9774;52.034;5.342;2023-04-01T00:23:19;98867.00;;;16.40
19282;BMP180;9774;52.034;5.342;2023-04-01T00:29:10;98877.00;;;16.40
19282;BMP180;9774;52.034;5.342;2023-04-01T00:31:38;98877.00;;;16.30
19282;BMP180;9774;52.034;5.342;2023-04-01T00:34:06;98876.00;;;16.40
19282;BMP180;9774;52.034;5.342;2023-04-01T00:36:34;98874.00;;;16.30
19282;BMP180;9774;52.034;5.342;2023-04-01T00:39:01;98881.00;;;16.30
19282;BMP180;9774;52.034;5.342;2023-04-01T00:41:28;98891.00;;;16.30
19282;BMP180;9774;52.034;5.342;2023-04-01T00:44:18;98882.00;;;16.20
19282;BMP180;9774;52.034;5.342;2023-04-01T00:46:47;98884.00;;;16.30
19282;BMP180;9774;52.034;5.342;2023-04-01T00:49:15;98890.00;;;16.30
19282;BMP180;9774;52.034;5.342;2023-04-01T00:51:46;98890.00;;;16.30
19282;BMP180;9774;52.034;5.342;2023-04-01T00:54:16;98887.00;;;16.30
19282;BMP180;9774;52.034;5.342;2023-04-01T00:56:48;98887.00;;;16.20
19282;BMP180;9774;52.034;5.342;2023-04-01T00:59:21;98892.00;;;16.20
19282;BMP180;9774;52.034;5.342;2023-04-01T01:01:49;98885.00;;;16.20
19282;BMP180;9774;52.034;5.342;2023-04-01T01:04:25;98889.00;;;16.10
19282;BMP180;9774;52.034;5.342;2023-04-01T01:07:04;98885.00;;;16.10
19282;BMP180;9774;52.034;5.342;2023-04-01T01:09:40;98886.00;;;16.10
19282;BMP180;9774;52.034;5.342;2023-04-01T01:12:11;98895.00;;;16.20
19282;BMP180;9774;52.034;5.342;2023-04-01T01:14:52;98896.00;;;16.10
19282;BMP180;9774;52.034;5.342;2023-04-01T01:17:26;98898.00;;;16.10
19282;BMP180;9774;52.034;5.342;2023-04-01T01:20:26;98896.00;;;16.00
19282;BMP180;9774;52.034;5.342;2023-04-01T01:26:12;98906.00;;;16.00
19282;BMP180;9774;52.034;5.342;2023-04-01T01:28:51;98906.00;;;16.00
19282;BMP180;9774;52.034;5.342;2023-04-01T01:31:24;98904.00;;;16.00
19282;BMP180;9774;52.034;5.342;2023-04-01T01:34:04;98909.00;;;16.00
19282;BMP180;9774;52.034;5.342;2023-04-01T01:36:35;98905.00;;;16.00
19282;BMP180;9774;52.034;5.342;2023-04-01T01:39:06;98915.00;;;16.00
19282;BMP180;9774;52.034;5.342;2023-04-01T01:41:35;98913.00;;;16.00
19282;BMP180;9774;52.034;5.342;2023-04-01T01:44:05;98902.00;;;16.00
19282;BMP180;9774;52.034;5.342;2023-04-01T01:46:33;98908.00;;;16.00
19282;BMP180;9774;52.034;5.342;2023-04-01T01:49:01;98908.00;;;16.00
19282;BMP180;9774;52.034;5.342;2023-04-01T01:51:30;98911.00;;;16.00
19282;BMP180;9774;52.034;5.342;2023-04-01T01:53:59;98913.00;;;15.90
19282;BMP180;9774;52.034;5.342;2023-04-01T01:56:28;98917.00;;;15.90
19282;BMP180;9774;52.034;5.342;2023-04-01T01:58:58;98919.00;;;15.90
19282;BMP180;9774;52.034;5.342;2023-04-01T02:01:29;98914.00;;;15.90
19282;BMP180;9774;52.034;5.342;2023-04-01T02:03:58;98918.00;;;15.90
19282;BMP180;9774;52.034;5.342;2023-04-01T02:06:28;98913.00;;;15.90
19282;BMP180;9774;52.034;5.342;2023-04-01T02:08:59;98917.00;;;15.90
19282;BMP180;9774;52.034;5.342;2023-04-01T02:11:32;98919.00;;;15.90
19282;BMP180;9774;52.034;5.342;2023-04-01T02:14:04;98926.00;;;15.90
19282;BMP180;9774;52.034;5.342;2023-04-01T02:16:36;98920.00;;;15.90
19282;BMP180;9774;52.034;5.342;2023-04-01T02:19:06;98931.00;;;15.90
19282;BMP180;9774;52.034;5.342;2023-04-01T02:21:35;98925.00;;;15.90
19282;BMP180;9774;52.034;5.342;2023-04-01T02:24:10;98932.00;;;15.90
19282;BMP180;9774;52.034;5.342;2023-04-01T02:26:40;98932.00;;;15.90
19282;BMP180;9774;52.034;5.342;2023-04-01T02:29:09;98927.00;;;15.90
19282;BMP180;9774;52.034;5.342;2023-04-01T02:31:38;98928.00;;;15.90
19282;BMP180;9774;52.034;5.342;2023-04-01T02:34:06;98934.00;;;15.90
19282;BMP180;9774;52.034;5.342;2023-04-01T02:36:35;98931.00;;;15.80
19282;BMP180;9774;52.034;5.342;2023-04-01T02:39:04;98933.00;;;15.80
19282;BMP180;9774;52.034;5.342;2023-04-01T02:41:32;98922.00;;;15.80
19282;BMP180;9774;52.034;5.342;2023-04-01T02:44:06;98934.00;;;15.80
19282;BMP180;9774;52.034;5.342;2023-04-01T02:46:33;98936.00;;;15.80
19282;BMP180;9774;52.034;5.342;2023-04-01T02:49:01;98931.00;;;15.70
19282;BMP180;9774;52.034;5.342;2023-04-01T02:51:28;98940.00;;;15.70
19282;BMP180;9774;52.034;5.342;2023-04-01T02:53:56;98944.00;;;15.70
19282;BMP180;9774;52.034;5.342;2023-04-01T02:56:24;98938.00;;;15.70
19282;BMP180;9774;52.034;5.342;2023-04-01T02:58:52;98953.00;;;15.70
19282;BMP180;9774;52.034;5.342;2023-04-01T03:01:19;98943.00;;;15.70
19282;BMP180;9774;52.034;5.342;2023-04-01T03:03:47;98946.00;;;15.70
19282;BMP180;9774;52.034;5.342;2023-04-01T03:06:16;98942.00;;;15.60
19282;BMP180;9774;52.034;5.342;2023-04-01T03:08:45;98948.00;;;15.60
19282;BMP180;9774;52.034;5.342;2023-04-01T03:11:13;98945.00;;;15.60
19282;BMP180;9774;52.034;5.342;2023-04-01T03:13:42;98951.00;;;15.60
19282;BMP180;9774;52.034;5.342;2023-04-01T03:16:09;98946.00;;;15.60
19282;BMP180;9774;52.034;5.342;2023-04-01T03:18:36;98958.00;;;15.60
19282;BMP180;9774;52.034;5.342;2023-04-01T03:21:14;98964.00;;;15.60
19282;BMP180;9774;52.034;5.342;2023-04-01T03:23:41;98968.00;;;15.60
19282;BMP180;9774;52.034;5.342;2023-04-01T03:26:09;98975.00;;;15.60
19282;BMP180;9774;52.034;5.342;2023-04-01T03:28:36;98970.00;;;15.60
19282;BMP180;9774;52.034;5.342;2023-04-01T03:31:05;98969.00;;;15.60
19282;BMP180;9774;52.034;5.342;2023-04-01T03:33:33;98971.00;;;15.60
19282;BMP180;9774;52.034;5.342;2023-04-01T03:36:00;98971.00;;;15.60
19282;BMP180;9774;52.034;5.342;2023-04-01T03:38:29;98979.00;;;15.60
19282;BMP180;9774;52.034;5.342;2023-04-01T03:40:56;98983.00;;;15.60
19282;BMP180;9774;52.034;5.342;2023-04-01T03:43:24;98980.00;;;15.60
19282;BMP180;9774;52.034;5.342;2023-04-01T03:45:52;98978.00;;;15.60
19282;BMP180;9774;52.034;5.342;2023-04-01T03:48:21;98984.00;;;15.60
19282;BMP180;9774;52.034;5.342;2023-04-01T03:50:49;98981.00;;;15.60
19282;BMP180;9774;52.034;5.342;2023-04-01T03:53:16;98988.00;;;15.60
19282;BMP180;9774;52.034;5.342;2023-04-01T03:55:44;98989.00;;;15.60
19282;BMP180;9774;52.034;5.342;2023-04-01T03:58:11;98998.00;;;15.60
19282;BMP180;9774;52.034;5.342;2023-04-01T04:00:38;98993.00;;;15.60
19282;BMP180;9774;52.034;5.342;2023-04-01T04:03:06;98996.00;;;15.60
19282;BMP180;9774;52.034;5.342;2023-04-01T04:05:36;98994.00;;;15.60
19282;BMP180;9774;52.034;5.342;2023-04-01T04:08:04;98998.00;;;15.60
19282;BMP180;9774;52.034;5.342;2023-04-01T04:10:32;99009.00;;;15.70
19282;BMP180;9774;52.034;5.342;2023-04-01T04:13:01;99005.00;;;15.70
19282;BMP180;9774;52.034;5.342;2023-04-01T04:15:28;99017.00;;;15.70
19282;BMP180;9774;52.034;5.342;2023-04-01T04:17:55;99015.00;;;15.70
19282;BMP180;9774;52.034;5.342;2023-04-01T04:20:23;99020.00;;;15.70
19282;BMP180;9774;52.034;5.342;2023-04-01T04:22:52;99023.00;;;15.70
19282;BMP180;9774;52.034;5.342;2023-04-01T04:25:19;99024.00;;;15.70
19282;BMP180;9774;52.034;5.342;2023-04-01T04:27:46;99023.00;;;15.70
19282;BMP180;9774;52.034;5.342;2023-04-01T04:30:14;99025.00;;;15.70
19282;BMP180;9774;52.034;5.342;2023-04-01T04:32:41;99041.00;;;15.80
19282;BMP180;9774;52.034;5.342;2023-04-01T04:35:09;99036.00;;;15.70
19282;BMP180;9774;52.034;5.342;2023-04-01T04:37:36;99034.00;;;15.80
19282;BMP180;9774;52.034;5.342;2023-04-01T04:40:06;99038.00;;;15.70
19282;BMP180;9774;52.034;5.342;2023-04-01T04:42:34;99049.00;;;15.80
19282;BMP180;9774;52.034;5.342;2023-04-01T04:45:01;99048.00;;;15.80
19282;BMP180;9774;52.034;5.342;2023-04-01T04:47:29;99057.00;;;15.80
19282;BMP180;9774;52.034;5.342;2023-04-01T04:49:56;99058.00;;;15.80
19282;BMP180;9774;52.034;5.342;2023-04-01T04:52:23;99062.00;;;15.80
19282;BMP180;9774;52.034;5.342;2023-04-01T04:54:51;99073.00;;;15.80
19282;BMP180;9774;52.034;5.342;2023-04-01T04:57:19;99078.00;;;15.80
19282;BMP180;9774;52.034;5.342;2023-04-01T04:59:47;99087.00;;;15.80
19282;BMP180;9774;52.034;5.342;2023-04-01T05:02:14;99082.00;;;15.80
19282;BMP180;9774;52.034;5.342;2023-04-01T05:04:41;99088.00;;;15.80
19282;BMP180;9774;52.034;5.342;2023-04-01T05:07:09;99099.00;;;15.80
19282;BMP180;9774;52.034;5.342;2023-04-01T05:09:36;99100.00;;;15.80
19282;BMP180;9774;52.034;5.342;2023-04-01T05:12:04;99103.00;;;15.80
19282;BMP180;9774;52.034;5.342;2023-04-01T05:14:32;99112.00;;;15.80
19282;BMP180;9774;52.034;5.342;2023-04-01T05:17:00;99106.00;;;15.80
19282;BMP180;9774;52.034;5.342;2023-04-01T05:19:27;99114.00;;;15.80
19282;BMP180;9774;52.034;5.342;2023-04-01T05:21:54;99119.00;;;15.80
19282;BMP180;9774;52.034;5.342;2023-04-01T05:24:21;99118.00;;;15.80
19282;BMP180;9774;52.034;5.342;2023-04-01T05:26:50;99122.00;;;15.90
19282;BMP180;9774;52.034;5.342;2023-04-01T05:29:17;99130.00;;;15.90
19282;BMP180;9774;52.034;5.342;2023-04-01T05:31:46;99135.00;;;15.80
19282;BMP180;9774;52.034;5.342;2023-04-01T05:34:13;99133.00;;;15.90
19282;BMP180;9774;52.034;5.342;2023-04-01T05:36:41;99140.00;;;15.90
19282;BMP180;9774;52.034;5.342;2023-04-01T05:39:09;99143.00;;;15.90
19282;BMP180;9774;52.034;5.342;2023-04-01T05:41:36;99145.00;;;15.90
19282;BMP180;9774;52.034;5.342;2023-04-01T05:44:04;99150.00;;;15.90
19282;BMP180;9774;52.034;5.342;2023-04-01T05:46:31;99156.00;;;15.90
19282;BMP180;9774;52.034;5.342;2023-04-01T05:49:00;99159.00;;;15.90
19282;BMP180;9774;52.034;5.342;2023-04-01T05:51:28;99157.00;;;15.90
19282;BMP180;9774;52.034;5.342;2023-04-01T05:53:55;99163.00;;;15.90
19282;BMP180;9774;52.034;5.342;2023-04-01T05:56:22;99164.00;;;16.00
19282;BMP180;9774;52.034;5.342;2023-04-01T05:58:52;99167.00;;;15.90
19282;BMP180;9774;52.034;5.342;2023-04-01T06:01:23;99166.00;;;16.00
19282;BMP180;9774;52.034;5.342;2023-04-01T06:03:50;99175.00;;;16.00
19282;BMP180;9774;52.034;5.342;2023-04-01T06:06:24;99177.00;;;15.90
19282;BMP180;9774;52.034;5.342;2023-04-01T06:08:52;99183.00;;;16.00
19282;BMP180;9774;52.034;5.342;2023-04-01T06:11:28;99184.00;;;15.90
19282;BMP180;9774;52.034;5.342;2023-04-01T06:14:16;99192.00;;;16.00
19282;BMP180;9774;52.034;5.342;2023-04-01T06:17:01;99191.00;;;16.00
19282;BMP180;9774;52.034;5.342;2023-04-01T06:19:39;99199.00;;;16.00
19282;BMP180;9774;52.034;5.342;2023-04-01T06:22:35;99207.00;;;16.00
19282;BMP180;9774;52.034;5.342;2023-04-01T06:31:38;99222.00;;;16.00
19282;BMP180;9774;52.034;5.342;2023-04-01T06:34:26;99221.00;;;16.00
19282;BMP180;9774;52.034;5.342;2023-04-01T06:37:08;99228.00;;;16.00
19282;BMP180;9774;52.034;5.342;2023-04-01T06:43:02;99230.00;;;16.10
19282;BMP180;9774;52.034;5.342;2023-04-01T06:45:38;99243.00;;;16.10
19282;BMP180;9774;52.034;5.342;2023-04-01T06:48:20;99238.00;;;16.10
19282;BMP180;9774;52.034;5.342;2023-04-01T06:51:00;99251.00;;;16.10
19282;BMP180;9774;52.034;5.342;2023-04-01T06:53:35;99248.00;;;16.10
19282;BMP180;9774;52.034;5.342;2023-04-01T06:56:09;99263.00;;;16.10
19282;BMP180;9774;52.034;5.342;2023-04-01T06:58:44;99260.00;;;16.10
19282;BMP180;9774;52.034;5.342;2023-04-01T07:01:16;99265.00;;;16.10
19282;BMP180;9774;52.034;5.342;2023-04-01T07:03:51;99268.00;;;16.10
19282;BMP180;9774;52.034;5.342;2023-04-01T07:06:25;99275.00;;;16.10
19282;BMP180;9774;52.034;5.342;2023-04-01T07:08:55;99277.00;;;16.20
19282;BMP180;9774;52.034;5.342;2023-04-01T07:11:29;99279.00;;;16.20
19282;BMP180;9774;52.034;5.342;2023-04-01T07:14:02;99289.00;;;16.20
19282;BMP180;9774;52.034;5.342;2023-04-01T07:16:33;99294.00;;;16.20
19282;BMP180;9774;52.034;5.342;2023-04-01T07:19:05;99299.00;;;16.20
19282;BMP180;9774;52.034;5.342;2023-04-01T07:21:37;99300.00;;;16.30
19282;BMP180;9774;52.034;5.342;2023-04-01T07:24:10;99304.00;;;16.30
19282;BMP180;9774;52.034;5.342;2023-04-01T07:26:39;99319.00;;;16.30
19282;BMP180;9774;52.034;5.342;2023-04-01T07:29:11;99322.00;;;16.30
19282;BMP180;9774;52.034;5.342;2023-04-01T07:31:51;99324.00;;;16.30
19282;BMP180;9774;52.034;5.342;2023-04-01T07:34:25;99330.00;;;16.40
19282;BMP180;9774;52.034;5.342;2023-04-01T07:36:57;99328.00;;;16.40
19282;BMP180;9774;52.034;5.342;2023-04-01T07:39:34;99328.00;;;16.40
19282;BMP180;9774;52.034;5.342;2023-04-01T07:42:09;99331.00;;;16.40
19282;BMP180;9774;52.034;5.342;2023-04-01T07:44:47;99338.00;;;16.50
19282;BMP180;9774;52.034;5.342;2023-04-01T07:47:34;99340.00;;;16.40
19282;BMP180;9774;52.034;5.342;2023-04-01T07:50:13;99344.00;;;16.50
19282;BMP180;9774;52.034;5.342;2023-04-01T07:52:49;99351.00;;;16.50
19282;BMP180;9774;52.034;5.342;2023-04-01T07:55:22;99359.00;;;16.50
19282;BMP180;9774;52.034;5.342;2023-04-01T07:57:55;99361.00;;;16.50
19282;BMP180;9774;52.034;5.342;2023-04-01T08:00:29;99362.00;;;16.50
19282;BMP180;9774;52.034;5.342;2023-04-01T08:03:09;99369.00;;;16.50
19282;BMP180;9774;52.034;5.342;2023-04-01T08:05:50;99373.00;;;16.50
19282;BMP180;9774;52.034;5.342;2023-04-01T08:08:30;99373.00;;;16.50
19282;BMP180;9774;52.034;5.342;2023-04-01T08:11:04;99380.00;;;16.50
19282;BMP180;9774;52.034;5.342;2023-04-01T08:13:40;99387.00;;;16.50
19282;BMP180;9774;52.034;5.342;2023-04-01T08:16:16;99390.00;;;16.50
19282;BMP180;9774;52.034;5.342;2023-04-01T08:18:50;99388.00;;;16.50
19282;BMP180;9774;52.034;5.342;2023-04-01T08:21:23;99394.00;;;16.50
19282;BMP180;9774;52.034;5.342;2023-04-01T08:23:54;99410.00;;;16.50
19282;BMP180;9774;52.034;5.342;2023-04-01T08:26:30;99403.00;;;16.50
19282;BMP180;9774;52.034;5.342;2023-04-01T08:29:02;99406.00;;;16.50
19282;BMP180;9774;52.034;5.342;2023-04-01T08:31:34;99407.00;;;16.60
19282;BMP180;9774;52.034;5.342;2023-04-01T08:34:05;99411.00;;;16.60
19282;BMP180;9774;52.034;5.342;2023-04-01T08:36:38;99423.00;;;16.60
19282;BMP180;9774;52.034;5.342;2023-04-01T08:39:09;99425.00;;;16.60
19282;BMP180;9774;52.034;5.342;2023-04-01T08:45:10;99437.00;;;16.60
19282;BMP180;9774;52.034;5.342;2023-04-01T08:47:52;99436.00;;;16.60
19282;BMP180;9774;52.034;5.342;2023-04-01T08:50:33;99441.00;;;16.60
19282;BMP180;9774;52.034;5.342;2023-04-01T08:53:07;99443.00;;;16.70
19282;BMP180;9774;52.034;5.342;2023-04-01T08:55:47;99442.00;;;16.70
19282;BMP180;9774;52.034;5.342;2023-04-01T09:01:21;99456.00;;;16.70
19282;BMP180;9774;52.034;5.342;2023-04-01T09:04:10;99461.00;;;16.70
19282;BMP180;9774;52.034;5.342;2023-04-01T09:06:48;99458.00;;;16.70
19282;BMP180;9774;52.034;5.342;2023-04-01T09:09:43;99461.00;;;16.60
19282;BMP180;9774;52.034;5.342;2023-04-01T09:12:33;99474.00;;;16.60
19282;BMP180;9774;52.034;5.342;2023-04-01T09:18:26;99472.00;;;16.60
19282;BMP180;9774;52.034;5.342;2023-04-01T09:24:30;99490.00;;;16.70
19282;BMP180;9774;52.034;5.342;2023-04-01T09:27:04;99477.00;;;16.80
19282;BMP180;9774;52.034;5.342;2023-04-01T09:33:01;99487.00;;;16.70
19282;BMP180;9774;52.034;5.342;2023-04-01T09:35:42;99495.00;;;16.90
19282;BMP180;9774;52.034;5.342;2023-04-01T09:38:21;99505.00;;;16.90
19282;BMP180;9774;52.034;5.342;2023-04-01T09:40:55;99496.00;;;16.90
19282;BMP180;9774;52.034;5.342;2023-04-01T09:43:28;99504.00;;;17.00
19282;BMP180;9774;52.034;5.342;2023-04-01T09:46:10;99501.00;;;16.90
19282;BMP180;9774;52.034;5.342;2023-04-01T09:49:06;99510.00;;;17.00
19282;BMP180;9774;52.034;5.342;2023-04-01T09:51:45;99509.00;;;17.10
19282;BMP180;9774;52.034;5.342;2023-04-01T09:54:34;99515.00;;;17.10
19282;BMP180;9774;52.034;5.342;2023-04-01T10:03:40;99522.00;;;17.20
19282;BMP180;9774;52.034;5.342;2023-04-01T10:12:42;99523.00;;;17.30
19282;BMP180;9774;52.034;5.342;2023-04-01T10:15:37;99530.00;;;17.30
19282;BMP180;9774;52.034;5.342;2023-04-01T10:18:40;99533.00;;;17.40
19282;BMP180;9774;52.034;5.342;2023-04-01T10:24:19;99551.00;;;17.40
19282;BMP180;9774;52.034;5.342;2023-04-01T10:27:10;99551.00;;;17.40
19282;BMP180;9774;52.034;5.342;2023-04-01T10:30:05;99552.00;;;17.50
19282;BMP180;9774;52.034;5.342;2023-04-01T10:39:04;99554.00;;;17.80
19282;BMP180;9774;52.034;5.342;2023-04-01T10:42:06;99552.00;;;17.90
19282;BMP180;9774;52.034;5.342;2023-04-01T10:45:08;99564.00;;;18.00
19282;BMP180;9774;52.034;5.342;2023-04-01T10:48:09;99557.00;;;18.10
19282;BMP180;9774;52.034;5.342;2023-04-01T10:51:14;99560.00;;;18.20
19282;BMP180;9774;52.034;5.342;2023-04-01T10:53:58;99565.00;;;18.30
19282;BMP180;9774;52.034;5.342;2023-04-01T10:56:55;99566.00;;;18.30
19282;BMP180;9774;52.034;5.342;2023-04-01T10:59:45;99574.00;;;18.40
19282;BMP180;9774;52.034;5.342;2023-04-01T11:06:18;99582.00;;;18.30
19282;BMP180;9774;52.034;5.342;2023-04-01T11:09:18;99582.00;;;18.30
19282;BMP180;9774;52.034;5.342;2023-04-01T11:21:42;99597.00;;;18.40
19282;BMP180;9774;52.034;5.342;2023-04-01T11:27:24;99600.00;;;18.60
19282;BMP180;9774;52.034;5.342;2023-04-01T11:30:20;99602.00;;;18.60
19282;BMP180;9774;52.034;5.342;2023-04-01T11:32:54;99611.00;;;18.70
19282;BMP180;9774;52.034;5.342;2023-04-01T11:39:00;99618.00;;;18.60
19282;BMP180;9774;52.034;5.342;2023-04-01T11:41:36;99620.00;;;18.60
19282;BMP180;9774;52.034;5.342;2023-04-01T11:44:18;99632.00;;;18.60
19282;BMP180;9774;52.034;5.342;2023-04-01T11:47:09;99621.00;;;18.50
19282;BMP180;9774;52.034;5.342;2023-04-01T11:49:50;99624.00;;;18.60
19282;BMP180;9774;52.034;5.342;2023-04-01T11:52:38;99635.00;;;18.60
19282;BMP180;9774;52.034;5.342;2023-04-01T11:55:24;99641.00;;;18.60
19282;BMP180;9774;52.034;5.342;2023-04-01T11:58:12;99645.00;;;18.70
19282;BMP180;9774;52.034;5.342;2023-04-01T12:01:01;99647.00;;;18.80
19282;BMP180;9774;52.034;5.342;2023-04-01T12:03:43;99644.00;;;18.90
19282;BMP180;9774;52.034;5.342;2023-04-01T12:06:19;99656.00;;;19.00
19282;BMP180;9774;52.034;5.342;2023-04-01T12:08:54;99656.00;;;19.10
19282;BMP180;9774;52.034;5.342;2023-04-01T12:11:33;99648.00;;;19.20
19282;BMP180;9774;52.034;5.342;2023-04-01T12:14:08;99654.00;;;19.30
19282;BMP180;9774;52.034;5.342;2023-04-01T12:16:59;99658.00;;;19.30
19282;BMP180;9774;52.034;5.342;2023-04-01T12:19:39;99659.00;;;19.40
19282;BMP180;9774;52.034;5.342;2023-04-01T12:22:29;99669.00;;;19.30
19282;BMP180;9774;52.034;5.342;2023-04-01T12:25:12;99681.00;;;19.30
19282;BMP180;9774;52.034;5.342;2023-04-01T12:27:46;99685.00;;;19.20
19282;BMP180;9774;52.034;5.342;2023-04-01T12:30:42;99693.00;;;19.00
19282;BMP180;9774;52.034;5.342;2023-04-01T12:33:38;99695.00;;;19.00
19282;BMP180;9774;52.034;5.342;2023-04-01T12:36:23;99696.00;;;18.90
19282;BMP180;9774;52.034;5.342;2023-04-01T12:39:12;99696.00;;;18.80
19282;BMP180;9774;52.034;5.342;2023-04-01T12:41:49;99699.00;;;18.80
19282;BMP180;9774;52.034;5.342;2023-04-01T12:47:32;99705.00;;;18.60
19282;BMP180;9774;52.034;5.342;2023-04-01T12:50:23;99705.00;;;18.60
19282;BMP180;9774;52.034;5.342;2023-04-01T12:53:02;99709.00;;;18.60
19282;BMP180;9774;52.034;5.342;2023-04-01T12:55:39;99709.00;;;18.50
19282;BMP180;9774;52.034;5.342;2023-04-01T12:58:48;99713.00;;;18.40
19282;BMP180;9774;52.034;5.342;2023-04-01T13:10:26;99732.00;;;18.40
19282;BMP180;9774;52.034;5.342;2023-04-01T13:13:09;99736.00;;;18.30
19282;BMP180;9774;52.034;5.342;2023-04-01T13:15:42;99741.00;;;18.40
19282;BMP180;9774;52.034;5.342;2023-04-01T13:18:28;99747.00;;;18.30
19282;BMP180;9774;52.034;5.342;2023-04-01T13:21:05;99748.00;;;18.30
19282;BMP180;9774;52.034;5.342;2023-04-01T13:23:43;99761.00;;;18.30
19282;BMP180;9774;52.034;5.342;2023-04-01T13:26:22;99752.00;;;18.30
19282;BMP180;9774;52.034;5.342;2023-04-01T13:28:56;99760.00;;;18.30
19282;BMP180;9774;52.034;5.342;2023-04-01T13:31:34;99754.00;;;18.30
19282;BMP180;9774;52.034;5.342;2023-04-01T13:34:15;99758.00;;;18.30
19282;BMP180;9774;52.034;5.342;2023-04-01T13:36:55;99764.00;;;18.30
19282;BMP180;9774;52.034;5.342;2023-04-01T13:39:35;99763.00;;;18.30
19282;BMP180;9774;52.034;5.342;2023-04-01T13:42:14;99775.00;;;18.30
19282;BMP180;9774;52.034;5.342;2023-04-01T13:44:47;99769.00;;;18.40
19282;BMP180;9774;52.034;5.342;2023-04-01T13:47:30;99772.00;;;18.30
19282;BMP180;9774;52.034;5.342;2023-04-01T13:53:27;99786.00;;;18.20
19282;BMP180;9774;52.034;5.342;2023-04-01T13:56:03;99781.00;;;18.20
19282;BMP180;9774;52.034;5.342;2023-04-01T13:58:43;99786.00;;;18.20
19282;BMP180;9774;52.034;5.342;2023-04-01T14:01:15;99784.00;;;18.10
19282;BMP180;9774;52.034;5.342;2023-04-01T14:07:06;99786.00;;;18.10
19282;BMP180;9774;52.034;5.342;2023-04-01T14:09:58;99797.00;;;18.00
19282;BMP180;9774;52.034;5.342;2023-04-01T14:12:34;99797.00;;;18.00
19282;BMP180;9774;52.034;5.342;2023-04-01T14:15:19;99803.00;;;18.00
19282;BMP180;9774;52.034;5.342;2023-04-01T14:18:07;99807.00;;;17.90
19282;BMP180;9774;52.034;5.342;2023-04-01T14:20:51;99817.00;;;17.90
19282;BMP180;9774;52.034;5.342;2023-04-01T14:23:57;99811.00;;;17.80
19282;BMP180;9774;52.034;5.342;2023-04-01T14:30:01;99826.00;;;17.80
19282;BMP180;9774;52.034;5.342;2023-04-01T14:32:39;99828.00;;;17.80
19282;BMP180;9774;52.034;5.342;2023-04-01T14:35:30;99840.00;;;17.70
19282;BMP180;9774;52.034;5.342;2023-04-01T14:38:28;99837.00;;;17.70
19282;BMP180;9774;52.034;5.342;2023-04-01T14:41:06;99840.00;;;17.80
19282;BMP180;9774;52.034;5.342;2023-04-01T14:44:13;99850.00;;;17.70
19282;BMP180;9774;52.034;5.342;2023-04-01T14:47:08;99857.00;;;17.70
19282;BMP180;9774;52.034;5.342;2023-04-01T14:49:41;99858.00;;;17.70
19282;BMP180;9774;52.034;5.342;2023-04-01T14:52:13;99859.00;;;17.70
19282;BMP180;9774;52.034;5.342;2023-04-01T14:54:43;99869.00;;;17.60
19282;BMP180;9774;52.034;5.342;2023-04-01T14:57:13;99872.00;;;17.60
19282;BMP180;9774;52.034;5.342;2023-04-01T14:59:47;99881.00;;;17.60
19282;BMP180;9774;52.034;5.342;2023-04-01T15:02:45;99885.00;;;17.40
19282;BMP180;9774;52.034;5.342;2023-04-01T15:05:23;99886.00;;;17.50
19282;BMP180;9774;52.034;5.342;2023-04-01T15:08:10;99895.00;;;17.40
19282;BMP180;9774;52.034;5.342;2023-04-01T15:14:16;99902.00;;;17.30
19282;BMP180;9774;52.034;5.342;2023-04-01T15:16:55;99906.00;;;17.30
19282;BMP180;9774;52.034;5.342;2023-04-01T15:19:37;99914.00;;;17.30
19282;BMP180;9774;52.034;5.342;2023-04-01T15:22:24;99919.00;;;17.20
19282;BMP180;9774;52.034;5.342;2023-04-01T15:25:05;99922.00;;;17.30
19282;BMP180;9774;52.034;5.342;2023-04-01T15:27:44;99919.00;;;17.30
19282;BMP180;9774;52.034;5.342;2023-04-01T15:30:25;99927.00;;;17.20
19282;BMP180;9774;52.034;5.342;2023-04-01T15:36:03;99935.00;;;17.20
19282;BMP180;9774;52.034;5.342;2023-04-01T15:38:39;99947.00;;;17.20
19282;BMP180;9774;52.034;5.342;2023-04-01T15:41:16;99951.00;;;17.20
19282;BMP180;9774;52.034;5.342;2023-04-01T15:43:45;99962.00;;;17.30
19282;BMP180;9774;52.034;5.342;2023-04-01T15:46:24;99969.00;;;17.20
19282;BMP180;9774;52.034;5.342;2023-04-01T15:49:04;99968.00;;;17.20
19282;BMP180;9774;52.034;5.342;2023-04-01T15:51:48;99975.00;;;17.10
19282;BMP180;9774;52.034;5.342;2023-04-01T15:54:52;99975.00;;;17.10
19282;BMP180;9774;52.034;5.342;2023-04-01T15:57:28;99983.00;;;17.10
19282;BMP180;9774;52.034;5.342;2023-04-01T16:00:11;99985.00;;;17.10
19282;BMP180;9774;52.034;5.342;2023-04-01T16:02:46;99993.00;;;17.20
19282;BMP180;9774;52.034;5.342;2023-04-01T16:05:29;99994.00;;;17.10
19282;BMP180;9774;52.034;5.342;2023-04-01T16:11:03;100010.00;;;17.10
19282;BMP180;9774;52.034;5.342;2023-04-01T16:13:46;100010.00;;;17.10
19282;BMP180;9774;52.034;5.342;2023-04-01T16:16:25;100012.00;;;17.10
19282;BMP180;9774;52.034;5.342;2023-04-01T16:19:21;100022.00;;;17.00
19282;BMP180;9774;52.034;5.342;2023-04-01T16:21:59;100032.00;;;17.10
19282;BMP180;9774;52.034;5.342;2023-04-01T16:24:34;100037.00;;;17.00
19282;BMP180;9774;52.034;5.342;2023-04-01T16:27:06;100040.00;;;17.00
19282;BMP180;9774;52.034;5.342;2023-04-01T16:29:43;100042.00;;;16.90
19282;BMP180;9774;52.034;5.342;2023-04-01T16:32:29;100047.00;;;16.90
19282;BMP180;9774;52.034;5.342;2023-04-01T16:35:14;100058.00;;;16.90
19282;BMP180;9774;52.034;5.342;2023-04-01T16:37:48;100061.00;;;16.80
19282;BMP180;9774;52.034;5.342;2023-04-01T16:40:24;100073.00;;;16.80
19282;BMP180;9774;52.034;5.342;2023-04-01T16:42:55;100076.00;;;16.90
19282;BMP180;9774;52.034;5.342;2023-04-01T16:45:32;100078.00;;;16.70
19282;BMP180;9774;52.034;5.342;2023-04-01T16:48:07;100078.00;;;16.70
19282;BMP180;9774;52.034;5.342;2023-04-01T16:50:44;100091.00;;;16.70
19282;BMP180;9774;52.034;5.342;2023-04-01T16:53:21;100097.00;;;16.70
19282;BMP180;9774;52.034;5.342;2023-04-01T16:55:55;100103.00;;;16.70
19282;BMP180;9774;52.034;5.342;2023-04-01T16:58:28;100109.00;;;16.70